Terminal Aerodrome Forecast
Issued by NWS Bismarck, ND

Home | Current Version | Previous Version | Graphics & Text | Print | Product List | Glossary On
Versions: 1 2 3 4 5 6 7 8 9 10 11 12 13 14 15 16 17 18 19 20 21 22 23 24 25 26
000
FTUS43 KBIS 292332
TAFISN
TAF
KISN 292332Z 3000/3024 02012KT P6SM SCT100
     FM300600 02006KT P6SM SCT080 BKN120
     FM301200 09006KT P6SM BKN070 OVC120
     FM301500 14010KT P6SM VCSH BKN050 OVC080
     FM302000 10008KT P6SM -SHRA BKN050 OVC080=

USA.gov is the U.S. government's official web portal to all federal, state and local government web resources and services.